KDAL

Dallas Love Field

Airport
ICAO code
KDAL
IATA Code
DAL
Summary
ICAO Region
NAM
ICAO Territory
Location

Dallas, Texas,

Serving
Dallas
Elevation
487 ft
Coordinates
32° 50' 37" N , 96° 51' 10" W
KCC
Cfa
Airport LOS
Parallel Runway Operation
Metar
Observation
KDAL 081953Z 17008KT 10SM FEW070 FEW090 BKN250 37/18 A2999 RMK AO2 SLP148 TCU DSNT NW-NE-E T03670178
Station
Dallas, Dallas Love Field
Date/Time
2022-08-08 19:53:00
Wind direction
170°
Wind speed
08 kts
Lowest cloud amount
few clouds
Temperature
36.7°C
Dew point
17.8°C
Humidity
33%
Weather condition
n/a

Description

Dallas Love Field is a city-owned public-use airport located 10 km northwest of the central business district of Dallas, a city in Dallas County, Texas, United States.

Climatology

Humid “subtropical” climate (Köppen climate classification Cfa) - characterized by hot, humid summers and cool winters. Significant amounts of precipitation occur in all seasons in most areas. Winter rainfall (and sometimes snowfall) is associated with large storms that the westerlies steer from west to east. Most summer rainfall occurs during thunderstorms and occasional tropical storms (hurricanes).

Airport map

Aerial View

SKYbrary Partners:

Safety knowledge contributed by: